sensor_id;sensor_type;location;lat;lon;timestamp;temperature;humidity
65598;SHT31;52267;51.984;20.956;2023-08-01T00:00:44;18.16;72.51
65598;SHT31;52267;51.984;20.956;2023-08-01T00:03:25;18.15;72.57
65598;SHT31;52267;51.984;20.956;2023-08-01T00:05:52;18.14;72.59
65598;SHT31;52267;51.984;20.956;2023-08-01T00:08:21;18.14;72.55
65598;SHT31;52267;51.984;20.956;2023-08-01T00:10:48;18.14;72.56
65598;SHT31;52267;51.984;20.956;2023-08-01T00:13:15;18.17;72.55
65598;SHT31;52267;51.984;20.956;2023-08-01T00:15:42;18.19;72.62
65598;SHT31;52267;51.984;20.956;2023-08-01T00:18:10;18.18;72.71
65598;SHT31;52267;51.984;20.956;2023-08-01T00:20:51;18.18;72.79
65598;SHT31;52267;51.984;20.956;2023-08-01T00:23:20;18.18;72.76
65598;SHT31;52267;51.984;20.956;2023-08-01T00:25:47;18.17;72.70
65598;SHT31;52267;51.984;20.956;2023-08-01T00:28:18;18.15;72.70
65598;SHT31;52267;51.984;20.956;2023-08-01T00:30:45;18.15;72.78
65598;SHT31;52267;51.984;20.956;2023-08-01T00:33:13;18.15;72.65
65598;SHT31;52267;51.984;20.956;2023-08-01T00:35:41;18.12;72.81
65598;SHT31;52267;51.984;20.956;2023-08-01T00:38:08;18.06;73.17
65598;SHT31;52267;51.984;20.956;2023-08-01T00:40:35;18.05;73.02
65598;SHT31;52267;51.984;20.956;2023-08-01T00:43:02;18.08;72.92
65598;SHT31;52267;51.984;20.956;2023-08-01T00:45:29;18.04;73.05
65598;SHT31;52267;51.984;20.956;2023-08-01T00:47:57;18.05;73.00
65598;SHT31;52267;51.984;20.956;2023-08-01T00:50:25;18.04;73.07
65598;SHT31;52267;51.984;20.956;2023-08-01T00:52:52;18.03;73.04
65598;SHT31;52267;51.984;20.956;2023-08-01T00:55:21;18.02;73.07
65598;SHT31;52267;51.984;20.956;2023-08-01T00:57:49;18.02;73.15
65598;SHT31;52267;51.984;20.956;2023-08-01T01:00:18;18.01;73.45
65598;SHT31;52267;51.984;20.956;2023-08-01T01:02:45;18.00;73.32
65598;SHT31;52267;51.984;20.956;2023-08-01T01:05:13;18.00;73.35
65598;SHT31;52267;51.984;20.956;2023-08-01T01:07:41;17.98;73.51
65598;SHT31;52267;51.984;20.956;2023-08-01T01:10:10;17.98;73.40
65598;SHT31;52267;51.984;20.956;2023-08-01T01:12:39;17.97;73.41
65598;SHT31;52267;51.984;20.956;2023-08-01T01:15:07;17.98;73.44
65598;SHT31;52267;51.984;20.956;2023-08-01T01:17:38;17.99;73.41
65598;SHT31;52267;51.984;20.956;2023-08-01T01:20:08;17.99;73.53
65598;SHT31;52267;51.984;20.956;2023-08-01T01:22:38;17.98;73.63
65598;SHT31;52267;51.984;20.956;2023-08-01T01:25:09;17.97;73.54
65598;SHT31;52267;51.984;20.956;2023-08-01T01:27:38;17.97;73.48
65598;SHT31;52267;51.984;20.956;2023-08-01T01:30:06;17.96;73.53
65598;SHT31;52267;51.984;20.956;2023-08-01T01:32:34;17.96;73.61
65598;SHT31;52267;51.984;20.956;2023-08-01T01:35:02;17.93;73.52
65598;SHT31;52267;51.984;20.956;2023-08-01T01:37:31;17.91;73.60
65598;SHT31;52267;51.984;20.956;2023-08-01T01:39:58;17.88;73.66
65598;SHT31;52267;51.984;20.956;2023-08-01T01:42:25;17.84;73.62
65598;SHT31;52267;51.984;20.956;2023-08-01T01:44:52;17.83;73.59
65598;SHT31;52267;51.984;20.956;2023-08-01T01:47:19;17.79;73.86
65598;SHT31;52267;51.984;20.956;2023-08-01T01:49:46;17.76;73.90
65598;SHT31;52267;51.984;20.956;2023-08-01T01:52:13;17.75;73.84
65598;SHT31;52267;51.984;20.956;2023-08-01T01:54:40;17.73;74.01
65598;SHT31;52267;51.984;20.956;2023-08-01T01:57:07;17.73;74.05
65598;SHT31;52267;51.984;20.956;2023-08-01T01:59:34;17.73;74.05
65598;SHT31;52267;51.984;20.956;2023-08-01T02:02:02;17.74;74.05
65598;SHT31;52267;51.984;20.956;2023-08-01T02:04:30;17.74;74.14
65598;SHT31;52267;51.984;20.956;2023-08-01T02:06:57;17.76;74.07
65598;SHT31;52267;51.984;20.956;2023-08-01T02:09:24;17.75;74.08
65598;SHT31;52267;51.984;20.956;2023-08-01T02:11:51;17.76;74.14
65598;SHT31;52267;51.984;20.956;2023-08-01T02:14:18;17.73;74.31
65598;SHT31;52267;51.984;20.956;2023-08-01T02:16:45;17.71;74.33
65598;SHT31;52267;51.984;20.956;2023-08-01T02:19:12;17.70;74.33
65598;SHT31;52267;51.984;20.956;2023-08-01T02:21:39;17.69;74.40
65598;SHT31;52267;51.984;20.956;2023-08-01T02:24:06;17.68;74.39
65598;SHT31;52267;51.984;20.956;2023-08-01T02:26:33;17.67;74.41
65598;SHT31;52267;51.984;20.956;2023-08-01T02:29:00;17.67;74.48
65598;SHT31;52267;51.984;20.956;2023-08-01T02:31:27;17.67;74.46
65598;SHT31;52267;51.984;20.956;2023-08-01T02:33:54;17.67;74.53
65598;SHT31;52267;51.984;20.956;2023-08-01T02:36:23;17.67;74.52
65598;SHT31;52267;51.984;20.956;2023-08-01T02:38:50;17.64;74.56
65598;SHT31;52267;51.984;20.956;2023-08-01T02:41:17;17.61;74.69
65598;SHT31;52267;51.984;20.956;2023-08-01T02:43:44;17.62;74.67
65598;SHT31;52267;51.984;20.956;2023-08-01T02:46:11;17.60;74.67
65598;SHT31;52267;51.984;20.956;2023-08-01T02:48:38;17.59;74.65
65598;SHT31;52267;51.984;20.956;2023-08-01T02:51:05;17.57;74.65
65598;SHT31;52267;51.984;20.956;2023-08-01T02:53:35;17.55;74.62
65598;SHT31;52267;51.984;20.956;2023-08-01T02:56:03;17.55;74.59
65598;SHT31;52267;51.984;20.956;2023-08-01T02:58:32;17.51;74.63
65598;SHT31;52267;51.984;20.956;2023-08-01T03:01:00;17.50;74.72
65598;SHT31;52267;51.984;20.956;2023-08-01T03:03:27;17.48;74.54
65598;SHT31;52267;51.984;20.956;2023-08-01T03:05:54;17.47;74.48
65598;SHT31;52267;51.984;20.956;2023-08-01T03:08:21;17.46;74.49
65598;SHT31;52267;51.984;20.956;2023-08-01T03:10:48;17.46;74.51
65598;SHT31;52267;51.984;20.956;2023-08-01T03:13:15;17.47;74.59
65598;SHT31;52267;51.984;20.956;2023-08-01T03:15:42;17.47;74.53
65598;SHT31;52267;51.984;20.956;2023-08-01T03:18:09;17.47;74.60
65598;SHT31;52267;51.984;20.956;2023-08-01T03:20:36;17.47;74.66
65598;SHT31;52267;51.984;20.956;2023-08-01T03:23:04;17.49;74.57
65598;SHT31;52267;51.984;20.956;2023-08-01T03:25:31;17.52;74.48
65598;SHT31;52267;51.984;20.956;2023-08-01T03:27:58;17.54;74.47
65598;SHT31;52267;51.984;20.956;2023-08-01T03:30:25;17.53;74.46
65598;SHT31;52267;51.984;20.956;2023-08-01T03:32:52;17.54;74.53
65598;SHT31;52267;51.984;20.956;2023-08-01T03:35:19;17.56;74.47
65598;SHT31;52267;51.984;20.956;2023-08-01T03:37:46;17.58;74.42
65598;SHT31;52267;51.984;20.956;2023-08-01T03:40:13;17.61;74.35
65598;SHT31;52267;51.984;20.956;2023-08-01T03:42:40;17.62;74.35
65598;SHT31;52267;51.984;20.956;2023-08-01T03:45:08;17.61;74.33
65598;SHT31;52267;51.984;20.956;2023-08-01T03:47:36;17.62;74.29
65598;SHT31;52267;51.984;20.956;2023-08-01T03:50:03;17.64;74.27
65598;SHT31;52267;51.984;20.956;2023-08-01T03:52:31;17.68;74.27
65598;SHT31;52267;51.984;20.956;2023-08-01T03:54:58;17.71;74.12
65598;SHT31;52267;51.984;20.956;2023-08-01T03:57:25;17.74;74.01
65598;SHT31;52267;51.984;20.956;2023-08-01T03:59:52;17.77;73.87
65598;SHT31;52267;51.984;20.956;2023-08-01T04:02:19;17.79;73.90
65598;SHT31;52267;51.984;20.956;2023-08-01T04:04:46;17.82;73.79
65598;SHT31;52267;51.984;20.956;2023-08-01T04:07:13;17.84;73.72
65598;SHT31;52267;51.984;20.956;2023-08-01T04:09:41;17.87;73.63
65598;SHT31;52267;51.984;20.956;2023-08-01T04:12:08;17.91;73.54
65598;SHT31;52267;51.984;20.956;2023-08-01T04:14:35;17.93;73.47
65598;SHT31;52267;51.984;20.956;2023-08-01T04:17:02;17.97;73.40
65598;SHT31;52267;51.984;20.956;2023-08-01T04:19:29;18.00;73.43
65598;SHT31;52267;51.984;20.956;2023-08-01T04:21:56;18.02;73.40
65598;SHT31;52267;51.984;20.956;2023-08-01T04:24:23;18.06;73.29
65598;SHT31;52267;51.984;20.956;2023-08-01T04:26:54;18.08;73.14
65598;SHT31;52267;51.984;20.956;2023-08-01T04:29:21;18.11;73.07
65598;SHT31;52267;51.984;20.956;2023-08-01T04:31:48;18.16;73.12
65598;SHT31;52267;51.984;20.956;2023-08-01T04:34:15;18.21;73.11
65598;SHT31;52267;51.984;20.956;2023-08-01T04:36:42;18.26;73.12
65598;SHT31;52267;51.984;20.956;2023-08-01T04:39:09;18.28;73.01
65598;SHT31;52267;51.984;20.956;2023-08-01T04:41:36;18.33;73.01
65598;SHT31;52267;51.984;20.956;2023-08-01T04:44:03;18.34;72.89
65598;SHT31;52267;51.984;20.956;2023-08-01T04:46:30;18.37;72.95
65598;SHT31;52267;51.984;20.956;2023-08-01T04:48:57;18.39;72.88
65598;SHT31;52267;51.984;20.956;2023-08-01T04:51:25;18.39;72.82
65598;SHT31;52267;51.984;20.956;2023-08-01T04:53:52;18.41;72.76
65598;SHT31;52267;51.984;20.956;2023-08-01T04:56:19;18.44;72.71
65598;SHT31;52267;51.984;20.956;2023-08-01T04:58:46;18.49;72.73
65598;SHT31;52267;51.984;20.956;2023-08-01T05:01:13;18.56;72.72
65598;SHT31;52267;51.984;20.956;2023-08-01T05:03:40;18.66;72.54
65598;SHT31;52267;51.984;20.956;2023-08-01T05:06:07;18.80;72.05
65598;SHT31;52267;51.984;20.956;2023-08-01T05:08:34;18.94;71.64
65598;SHT31;52267;51.984;20.956;2023-08-01T05:11:01;19.06;71.43
65598;SHT31;52267;51.984;20.956;2023-08-01T05:13:29;19.16;71.23
65598;SHT31;52267;51.984;20.956;2023-08-01T05:15:56;19.26;71.06
65598;SHT31;52267;51.984;20.956;2023-08-01T05:18:23;19.36;70.94
65598;SHT31;52267;51.984;20.956;2023-08-01T05:20:50;19.43;70.54
65598;SHT31;52267;51.984;20.956;2023-08-01T05:23:17;19.50;70.81
65598;SHT31;52267;51.984;20.956;2023-08-01T05:25:44;19.55;70.03
65598;SHT31;52267;51.984;20.956;2023-08-01T05:28:11;19.61;70.28
65598;SHT31;52267;51.984;20.956;2023-08-01T05:30:39;19.68;70.30
65598;SHT31;52267;51.984;20.956;2023-08-01T05:33:07;19.74;70.33
65598;SHT31;52267;51.984;20.956;2023-08-01T05:35:37;19.81;69.78
65598;SHT31;52267;51.984;20.956;2023-08-01T05:38:04;19.85;69.47
65598;SHT31;52267;51.984;20.956;2023-08-01T05:40:31;19.90;69.27
65598;SHT31;52267;51.984;20.956;2023-08-01T05:42:58;20.00;69.32
65598;SHT31;52267;51.984;20.956;2023-08-01T05:45:25;20.11;69.21
65598;SHT31;52267;51.984;20.956;2023-08-01T05:47:52;20.19;67.98
65598;SHT31;52267;51.984;20.956;2023-08-01T05:50:19;20.28;68.04
65598;SHT31;52267;51.984;20.956;2023-08-01T05:52:47;20.36;67.81
65598;SHT31;52267;51.984;20.956;2023-08-01T05:55:14;20.46;67.54
65598;SHT31;52267;51.984;20.956;2023-08-01T05:57:41;20.58;67.78
65598;SHT31;52267;51.984;20.956;2023-08-01T06:00:08;20.69;67.51
65598;SHT31;52267;51.984;20.956;2023-08-01T06:02:36;20.78;67.31
65598;SHT31;52267;51.984;20.956;2023-08-01T06:05:04;20.86;67.24
65598;SHT31;52267;51.984;20.956;2023-08-01T06:07:31;20.90;66.69
65598;SHT31;52267;51.984;20.956;2023-08-01T06:09:58;20.94;65.87
65598;SHT31;52267;51.984;20.956;2023-08-01T06:12:25;20.99;66.17
65598;SHT31;52267;51.984;20.956;2023-08-01T06:14:52;21.02;66.16
65598;SHT31;52267;51.984;20.956;2023-08-01T06:17:20;21.09;66.34
65598;SHT31;52267;51.984;20.956;2023-08-01T06:19:47;21.14;65.84
65598;SHT31;52267;51.984;20.956;2023-08-01T06:22:16;21.17;65.33
65598;SHT31;52267;51.984;20.956;2023-08-01T06:24:43;21.22;65.50
65598;SHT31;52267;51.984;20.956;2023-08-01T06:27:10;21.27;65.51
65598;SHT31;52267;51.984;20.956;2023-08-01T06:29:37;21.32;65.30
65598;SHT31;52267;51.984;20.956;2023-08-01T06:32:04;21.34;64.39
65598;SHT31;52267;51.984;20.956;2023-08-01T06:34:32;21.39;64.64
65598;SHT31;52267;51.984;20.956;2023-08-01T06:36:59;21.47;65.07
65598;SHT31;52267;51.984;20.956;2023-08-01T06:39:26;21.58;64.98
65598;SHT31;52267;51.984;20.956;2023-08-01T06:41:53;21.64;64.03
65598;SHT31;52267;51.984;20.956;2023-08-01T06:44:27;21.70;64.28
65598;SHT31;52267;51.984;20.956;2023-08-01T06:46:54;21.76;64.42
65598;SHT31;52267;51.984;20.956;2023-08-01T06:49:21;21.78;63.93
65598;SHT31;52267;51.984;20.956;2023-08-01T06:51:48;21.80;64.20
65598;SHT31;52267;51.984;20.956;2023-08-01T06:54:15;21.87;64.49
65598;SHT31;52267;51.984;20.956;2023-08-01T06:56:43;21.94;64.41
65598;SHT31;52267;51.984;20.956;2023-08-01T06:59:14;22.04;64.09
65598;SHT31;52267;51.984;20.956;2023-08-01T07:01:42;22.16;64.01
65598;SHT31;52267;51.984;20.956;2023-08-01T07:04:10;22.35;63.88
65598;SHT31;52267;51.984;20.956;2023-08-01T07:06:38;22.49;62.60
65598;SHT31;52267;51.984;20.956;2023-08-01T07:09:06;22.62;62.61
65598;SHT31;52267;51.984;20.956;2023-08-01T07:11:33;22.80;62.70
65598;SHT31;52267;51.984;20.956;2023-08-01T07:14:00;22.94;62.68
65598;SHT31;52267;51.984;20.956;2023-08-01T07:16:27;22.99;61.78
65598;SHT31;52267;51.984;20.956;2023-08-01T07:18:55;23.05;61.66
65598;SHT31;52267;51.984;20.956;2023-08-01T07:21:22;23.09;62.37
65598;SHT31;52267;51.984;20.956;2023-08-01T07:23:49;23.12;62.35
65598;SHT31;52267;51.984;20.956;2023-08-01T07:26:16;23.12;61.57
65598;SHT31;52267;51.984;20.956;2023-08-01T07:28:43;23.16;61.75
65598;SHT31;52267;51.984;20.956;2023-08-01T07:31:10;23.24;62.03
65598;SHT31;52267;51.984;20.956;2023-08-01T07:33:37;23.30;61.98
65598;SHT31;52267;51.984;20.956;2023-08-01T07:36:04;23.37;61.10
65598;SHT31;52267;51.984;20.956;2023-08-01T07:38:31;23.47;61.36
65598;SHT31;52267;51.984;20.956;2023-08-01T07:41:01;23.60;61.52
65598;SHT31;52267;51.984;20.956;2023-08-01T07:43:33;23.75;60.89
65598;SHT31;52267;51.984;20.956;2023-08-01T07:46:00;23.92;60.29
65598;SHT31;52267;51.984;20.956;2023-08-01T07:48:28;24.12;60.20
65598;SHT31;52267;51.984;20.956;2023-08-01T07:50:55;24.28;60.34
65598;SHT31;52267;51.984;20.956;2023-08-01T07:53:22;24.37;60.11
65598;SHT31;52267;51.984;20.956;2023-08-01T07:55:51;24.53;60.48
65598;SHT31;52267;51.984;20.956;2023-08-01T07:58:19;24.69;60.81
65598;SHT31;52267;51.984;20.956;2023-08-01T08:00:46;24.85;60.04
65598;SHT31;52267;51.984;20.956;2023-08-01T08:03:14;24.97;59.15
65598;SHT31;52267;51.984;20.956;2023-08-01T08:05:41;25.01;58.60
65598;SHT31;52267;51.984;20.956;2023-08-01T08:08:08;25.04;57.08
65598;SHT31;52267;51.984;20.956;2023-08-01T08:10:35;25.10;57.21
65598;SHT31;52267;51.984;20.956;2023-08-01T08:13:02;25.19;56.92
65598;SHT31;52267;51.984;20.956;2023-08-01T08:15:29;25.18;56.81
65598;SHT31;52267;51.984;20.956;2023-08-01T08:18:01;25.17;56.37
65598;SHT31;52267;51.984;20.956;2023-08-01T08:20:31;25.08;55.48
65598;SHT31;52267;51.984;20.956;2023-08-01T08:23:11;24.99;55.28
65598;SHT31;52267;51.984;20.956;2023-08-01T08:25:44;24.90;55.75
65598;SHT31;52267;51.984;20.956;2023-08-01T08:28:20;24.83;56.48
65598;SHT31;52267;51.984;20.956;2023-08-01T08:30:56;24.70;56.13
65598;SHT31;52267;51.984;20.956;2023-08-01T08:33:23;24.58;56.33
65598;SHT31;52267;51.984;20.956;2023-08-01T08:35:51;24.45;56.44
65598;SHT31;52267;51.984;20.956;2023-08-01T08:38:18;24.36;56.58
65598;SHT31;52267;51.984;20.956;2023-08-01T08:41:28;24.30;57.22
65598;SHT31;52267;51.984;20.956;2023-08-01T08:43:56;24.24;57.01
65598;SHT31;52267;51.984;20.956;2023-08-01T08:46:26;24.16;56.78
65598;SHT31;52267;51.984;20.956;2023-08-01T08:48:56;24.13;56.98
65598;SHT31;52267;51.984;20.956;2023-08-01T08:51:26;24.08;56.60
65598;SHT31;52267;51.984;20.956;2023-08-01T08:53:54;24.06;56.78
65598;SHT31;52267;51.984;20.956;2023-08-01T08:56:23;24.05;57.36
65598;SHT31;52267;51.984;20.956;2023-08-01T08:58:50;24.01;57.43
65598;SHT31;52267;51.984;20.956;2023-08-01T09:01:19;23.97;57.71
65598;SHT31;52267;51.984;20.956;2023-08-01T09:03:46;23.97;57.81
65598;SHT31;52267;51.984;20.956;2023-08-01T09:06:17;23.97;57.81
65598;SHT31;52267;51.984;20.956;2023-08-01T09:09:31;23.98;57.49
65598;SHT31;52267;51.984;20.956;2023-08-01T09:11:49;24.00;57.76
65598;SHT31;52267;51.984;20.956;2023-08-01T09:14:18;24.01;58.00
65598;SHT31;52267;51.984;20.956;2023-08-01T09:16:46;24.05;58.05
65598;SHT31;52267;51.984;20.956;2023-08-01T09:19:17;24.11;58.17
65598;SHT31;52267;51.984;20.956;2023-08-01T09:21:46;24.05;57.69
65598;SHT31;52267;51.984;20.956;2023-08-01T09:24:14;24.11;58.15
65598;SHT31;52267;51.984;20.956;2023-08-01T09:26:47;24.18;58.23
65598;SHT31;52267;51.984;20.956;2023-08-01T09:29:16;24.19;57.80
65598;SHT31;52267;51.984;20.956;2023-08-01T09:31:44;24.17;57.82
65598;SHT31;52267;51.984;20.956;2023-08-01T09:34:21;24.13;57.92
65598;SHT31;52267;51.984;20.956;2023-08-01T09:36:51;24.12;58.55
65598;SHT31;52267;51.984;20.956;2023-08-01T09:39:25;24.15;58.81
65598;SHT31;52267;51.984;20.956;2023-08-01T09:41:59;24.20;58.21
65598;SHT31;52267;51.984;20.956;2023-08-01T09:44:29;24.33;58.24
65598;SHT31;52267;51.984;20.956;2023-08-01T09:46:57;24.50;58.06
65598;SHT31;52267;51.984;20.956;2023-08-01T09:49:29;24.62;57.72
65598;SHT31;52267;51.984;20.956;2023-08-01T09:51:57;24.68;57.51
65598;SHT31;52267;51.984;20.956;2023-08-01T09:54:25;24.69;57.26
65598;SHT31;52267;51.984;20.956;2023-08-01T09:56:52;24.76;57.77
65598;SHT31;52267;51.984;20.956;2023-08-01T09:59:21;24.89;57.86
65598;SHT31;52267;51.984;20.956;2023-08-01T10:01:53;24.84;56.97
65598;SHT31;52267;51.984;20.956;2023-08-01T10:04:23;24.71;57.15
65598;SHT31;52267;51.984;20.956;2023-08-01T10:06:54;24.64;57.11
65598;SHT31;52267;51.984;20.956;2023-08-01T10:09:34;24.58;57.10
65598;SHT31;52267;51.984;20.956;2023-08-01T10:12:02;24.43;57.64
65598;SHT31;52267;51.984;20.956;2023-08-01T10:14:32;24.34;58.47
65598;SHT31;52267;51.984;20.956;2023-08-01T10:16:59;24.18;59.50
65598;SHT31;52267;51.984;20.956;2023-08-01T10:19:30;23.98;60.06
65598;SHT31;52267;51.984;20.956;2023-08-01T10:21:59;23.80;60.38
65598;SHT31;52267;51.984;20.956;2023-08-01T10:24:27;23.68;60.79
65598;SHT31;52267;51.984;20.956;2023-08-01T10:26:56;23.48;61.68
65598;SHT31;52267;51.984;20.956;2023-08-01T10:29:34;23.34;61.80
65598;SHT31;52267;51.984;20.956;2023-08-01T10:32:02;23.26;62.38
65598;SHT31;52267;51.984;20.956;2023-08-01T10:34:30;23.17;62.43
65598;SHT31;52267;51.984;20.956;2023-08-01T10:36:57;23.12;62.77
65598;SHT31;52267;51.984;20.956;2023-08-01T10:39:26;23.04;63.80
65598;SHT31;52267;51.984;20.956;2023-08-01T10:41:58;22.94;64.47
65598;SHT31;52267;51.984;20.956;2023-08-01T10:44:27;22.84;64.71
65598;SHT31;52267;51.984;20.956;2023-08-01T10:46:58;22.80;65.42
65598;SHT31;52267;51.984;20.956;2023-08-01T10:49:35;22.79;65.42
65598;SHT31;52267;51.984;20.956;2023-08-01T10:52:17;22.74;66.85
65598;SHT31;52267;51.984;20.956;2023-08-01T10:54:46;22.65;67.11
65598;SHT31;52267;51.984;20.956;2023-08-01T10:57:17;22.61;66.76
65598;SHT31;52267;51.984;20.956;2023-08-01T10:59:45;22.56;67.74
65598;SHT31;52267;51.984;20.956;2023-08-01T11:02:19;22.51;67.86
65598;SHT31;52267;51.984;20.956;2023-08-01T11:07:32;22.44;69.07
65598;SHT31;52267;51.984;20.956;2023-08-01T11:10:02;22.42;69.00
65598;SHT31;52267;51.984;20.956;2023-08-01T11:12:38;22.42;69.08
65598;SHT31;52267;51.984;20.956;2023-08-01T11:15:09;22.46;69.37
65598;SHT31;52267;51.984;20.956;2023-08-01T11:17:42;22.38;70.00
65598;SHT31;52267;51.984;20.956;2023-08-01T11:20:14;22.39;69.88
65598;SHT31;52267;51.984;20.956;2023-08-01T11:22:51;22.48;69.45
65598;SHT31;52267;51.984;20.956;2023-08-01T11:28:05;22.52;69.57
65598;SHT31;52267;51.984;20.956;2023-08-01T11:30:35;22.42;69.64
65598;SHT31;52267;51.984;20.956;2023-08-01T11:33:54;22.33;69.40
65598;SHT31;52267;51.984;20.956;2023-08-01T11:35:54;22.27;69.85
65598;SHT31;52267;51.984;20.956;2023-08-01T11:38:26;22.22;69.74
65598;SHT31;52267;51.984;20.956;2023-08-01T11:41:00;22.23;69.62
65598;SHT31;52267;51.984;20.956;2023-08-01T11:43:39;22.27;69.80
65598;SHT31;52267;51.984;20.956;2023-08-01T11:46:07;22.33;69.76
65598;SHT31;52267;51.984;20.956;2023-08-01T11:48:35;22.39;69.33
65598;SHT31;52267;51.984;20.956;2023-08-01T11:51:03;22.48;69.24
65598;SHT31;52267;51.984;20.956;2023-08-01T11:53:30;22.59;69.57
65598;SHT31;52267;51.984;20.956;2023-08-01T11:56:05;22.65;69.26
65598;SHT31;52267;51.984;20.956;2023-08-01T11:58:33;22.76;68.53
65598;SHT31;52267;51.984;20.956;2023-08-01T12:01:09;22.89;68.36
65598;SHT31;52267;51.984;20.956;2023-08-01T12:03:56;22.96;67.72
65598;SHT31;52267;51.984;20.956;2023-08-01T12:06:24;22.98;67.56
65598;SHT31;52267;51.984;20.956;2023-08-01T12:08:52;23.05;67.23
65598;SHT31;52267;51.984;20.956;2023-08-01T12:11:26;23.09;67.18
65598;SHT31;52267;51.984;20.956;2023-08-01T12:14:03;22.94;66.72
65598;SHT31;52267;51.984;20.956;2023-08-01T12:16:33;22.93;67.05
65598;SHT31;52267;51.984;20.956;2023-08-01T12:19:00;22.94;67.20
65598;SHT31;52267;51.984;20.956;2023-08-01T12:21:28;22.90;66.94
65598;SHT31;52267;51.984;20.956;2023-08-01T12:23:57;22.77;67.12
65598;SHT31;52267;51.984;20.956;2023-08-01T12:26:25;22.67;67.12
65598;SHT31;52267;51.984;20.956;2023-08-01T12:28:52;22.68;67.23
65598;SHT31;52267;51.984;20.956;2023-08-01T12:31:20;22.78;67.31
65598;SHT31;52267;51.984;20.956;2023-08-01T12:33:48;22.88;67.17
65598;SHT31;52267;51.984;20.956;2023-08-01T12:36:16;22.91;67.29
65598;SHT31;52267;51.984;20.956;2023-08-01T12:38:43;22.97;67.12
65598;SHT31;52267;51.984;20.956;2023-08-01T12:41:10;22.97;67.05
65598;SHT31;52267;51.984;20.956;2023-08-01T12:43:37;23.02;66.97
65598;SHT31;52267;51.984;20.956;2023-08-01T12:46:04;23.12;66.85
65598;SHT31;52267;51.984;20.956;2023-08-01T12:48:31;23.21;66.70
65598;SHT31;52267;51.984;20.956;2023-08-01T12:51:02;23.29;66.51
65598;SHT31;52267;51.984;20.956;2023-08-01T12:53:29;23.37;66.53
65598;SHT31;52267;51.984;20.956;2023-08-01T12:55:56;23.44;66.35
65598;SHT31;52267;51.984;20.956;2023-08-01T12:58:23;23.52;66.03
65598;SHT31;52267;51.984;20.956;2023-08-01T13:00:50;23.53;65.59
65598;SHT31;52267;51.984;20.956;2023-08-01T13:03:20;23.49;64.89
65598;SHT31;52267;51.984;20.956;2023-08-01T13:05:47;23.44;64.75
65598;SHT31;52267;51.984;20.956;2023-08-01T13:08:14;23.52;65.53
65598;SHT31;52267;51.984;20.956;2023-08-01T13:10:41;23.61;65.56
65598;SHT31;52267;51.984;20.956;2023-08-01T13:13:08;23.73;65.66
65598;SHT31;52267;51.984;20.956;2023-08-01T13:15:35;23.70;64.50
65598;SHT31;52267;51.984;20.956;2023-08-01T13:18:03;23.76;65.05
65598;SHT31;52267;51.984;20.956;2023-08-01T13:20:30;23.71;64.75
65598;SHT31;52267;51.984;20.956;2023-08-01T13:22:57;23.74;65.24
65598;SHT31;52267;51.984;20.956;2023-08-01T13:25:24;23.81;65.29
65598;SHT31;52267;51.984;20.956;2023-08-01T13:27:51;23.82;64.95
65598;SHT31;52267;51.984;20.956;2023-08-01T13:30:18;23.81;65.24
65598;SHT31;52267;51.984;20.956;2023-08-01T13:33:00;23.81;65.39
65598;SHT31;52267;51.984;20.956;2023-08-01T13:35:27;23.81;65.36
65598;SHT31;52267;51.984;20.956;2023-08-01T13:37:54;23.72;65.44
65598;SHT31;52267;51.984;20.956;2023-08-01T13:40:21;23.67;65.96
65598;SHT31;52267;51.984;20.956;2023-08-01T13:42:51;23.58;66.25
65598;SHT31;52267;51.984;20.956;2023-08-01T13:45:18;23.47;66.49
65598;SHT31;52267;51.984;20.956;2023-08-01T13:47:45;23.40;66.54
65598;SHT31;52267;51.984;20.956;2023-08-01T13:50:12;23.29;66.73
65598;SHT31;52267;51.984;20.956;2023-08-01T13:52:39;23.15;67.56
65598;SHT31;52267;51.984;20.956;2023-08-01T13:55:06;23.08;67.27
65598;SHT31;52267;51.984;20.956;2023-08-01T13:57:34;23.00;67.84
65598;SHT31;52267;51.984;20.956;2023-08-01T14:00:01;22.97;67.67
65598;SHT31;52267;51.984;20.956;2023-08-01T14:02:29;23.01;67.41
65598;SHT31;52267;51.984;20.956;2023-08-01T14:04:57;22.98;67.38
65598;SHT31;52267;51.984;20.956;2023-08-01T14:07:24;22.99;67.30
65598;SHT31;52267;51.984;20.956;2023-08-01T14:09:54;22.99;67.42
65598;SHT31;52267;51.984;20.956;2023-08-01T14:12:21;22.97;67.65
65598;SHT31;52267;51.984;20.956;2023-08-01T14:14:48;22.95;67.71
65598;SHT31;52267;51.984;20.956;2023-08-01T14:17:15;22.93;67.67
65598;SHT31;52267;51.984;20.956;2023-08-01T14:19:42;22.91;67.76
65598;SHT31;52267;51.984;20.956;2023-08-01T14:22:10;22.85;68.09
65598;SHT31;52267;51.984;20.956;2023-08-01T14:24:37;22.73;69.54
65598;SHT31;52267;51.984;20.956;2023-08-01T14:27:04;22.60;70.29
65598;SHT31;52267;51.984;20.956;2023-08-01T14:29:31;22.40;71.97
65598;SHT31;52267;51.984;20.956;2023-08-01T14:31:58;22.30;71.21
65598;SHT31;52267;51.984;20.956;2023-08-01T14:34:25;22.20;71.78
65598;SHT31;52267;51.984;20.956;2023-08-01T14:36:52;21.84;73.92
65598;SHT31;52267;51.984;20.956;2023-08-01T14:39:23;21.71;73.60
65598;SHT31;52267;51.984;20.956;2023-08-01T14:41:50;21.63;73.68
65598;SHT31;52267;51.984;20.956;2023-08-01T14:44:17;21.45;74.76
65598;SHT31;52267;51.984;20.956;2023-08-01T14:46:45;21.26;76.67
65598;SHT31;52267;51.984;20.956;2023-08-01T14:49:12;21.13;76.57
65598;SHT31;52267;51.984;20.956;2023-08-01T14:51:40;21.02;76.66
65598;SHT31;52267;51.984;20.956;2023-08-01T14:54:07;20.93;76.44
65598;SHT31;52267;51.984;20.956;2023-08-01T14:56:35;20.88;76.36
65598;SHT31;52267;51.984;20.956;2023-08-01T14:59:02;20.83;77.07
65598;SHT31;52267;51.984;20.956;2023-08-01T15:01:29;20.79;76.87
65598;SHT31;52267;51.984;20.956;2023-08-01T15:03:57;20.73;79.20
65598;SHT31;52267;51.984;20.956;2023-08-01T15:06:24;20.66;78.17
65598;SHT31;52267;51.984;20.956;2023-08-01T15:08:52;20.67;78.72
65598;SHT31;52267;51.984;20.956;2023-08-01T15:11:20;20.64;77.61
65598;SHT31;52267;51.984;20.956;2023-08-01T15:13:47;20.65;77.53
65598;SHT31;52267;51.984;20.956;2023-08-01T15:16:14;20.60;78.33
65598;SHT31;52267;51.984;20.956;2023-08-01T15:18:41;20.51;79.12
65598;SHT31;52267;51.984;20.956;2023-08-01T15:21:08;20.43;79.15
65598;SHT31;52267;51.984;20.956;2023-08-01T15:23:35;20.41;78.84
65598;SHT31;52267;51.984;20.956;2023-08-01T15:26:03;20.35;79.70
65598;SHT31;52267;51.984;20.956;2023-08-01T15:28:30;20.30;79.47